Aérodrome :
LOGIN :

S'inscrire | Disclaimer

   EN    FR    IT 

 










Légende :    VFR   VFR Marginal   IFR   IFR Intensif   IFR Très Intensif
Visi : 
Plafond : 
>= 8 km
>= 3000ft
5 à 8 km
1000 à 3000 ft
1500m à 5 km
500 à 1000 ft
800 à 1500m
200 à 500 ft
< 800m
< 200 ft
Symboles :   Orages  Brouillard  Fortes neiges  Fortes précipitations  Vent > 20 kt
SIGMETs :   Divers  Orages  Givrage  Turbulence  Onde Orograph.  Cendres Volcan.







- Altitude de l'aérodrome : 93 ft
- Code IATA : XRY


LEJR - Jerez

DERNIER METAR :
  • 180000Z AUTO VRB02KT 9999 NCD 21/18 Q1015

METARs EXPIRÉS :
  • 172330Z AUTO VRB02KT 9999 NCD 22/18 Q1015
  • 172300Z AUTO 34001KT 9999 NCD 22/18 Q1015
  • 172230Z AUTO 00000KT 9999 NCD 23/18 Q1015
  • 172200Z AUTO VRB02KT 9999 NCD 24/19 Q1015
  • 172130Z AUTO 29006KT 260V320 9999 NCD 25/19 Q1015

TAF TAF LEJR
Valide du 18 à 00h jusqu'au 19 à 00h UTC


172300Z 1800/1824 VRB03KT CAVOK TX35/1815Z TN20/1806Z
BECMG 1806/1808 12012KT
PROB40
TEMPO 1809/1818 12015G25KT
BECMG 1819/1821 VRB03KT
Pas de NOTAMs connus pour ce terrain.



MET'MAP, la Météo Aéronautique d'un coup d'oeil ! - Copyright ORBIFLY Décembre 2007 - Disclaimer

ORBIFLY MET'MAP TEAM :

Programmation & Développement : Alexandra Zaïnal
Conception & Développement : Baudouin d'Aumeries
Co-Programmation & Développement : Marc-Olivier Méhu
Soutien technique & logistique : Manuel Goepfert

Contact : metmap@orbifly.com




SOURCES & CREDITS :

   NOAA